createdAt,value
2023-01-30T00:01:26.390Z,32.40
2023-01-30T00:03:53.979Z,34.03
2023-01-30T00:06:25.129Z,31.33
2023-01-30T00:09:00.955Z,35.72
2023-01-30T00:11:48.670Z,33.83
2023-01-30T00:14:39.515Z,33.55
2023-01-30T00:17:06.693Z,32.75
2023-01-30T00:19:33.916Z,32.97
2023-01-30T00:22:20.727Z,33.47
2023-01-30T00:25:03.110Z,32.55
2023-01-30T00:27:38.313Z,31.95
2023-01-30T00:30:09.958Z,31.90
2023-01-30T00:32:44.029Z,33.38
2023-01-30T00:35:16.821Z,31.13
2023-01-30T00:37:48.013Z,34.25
2023-01-30T00:40:21.429Z,39.13
2023-01-30T00:43:28.692Z,33.20
2023-01-30T00:47:01.770Z,33.20
2023-01-30T00:49:47.355Z,32.97
2023-01-30T00:52:21.832Z,29.55
2023-01-30T00:55:10.123Z,35.58
2023-01-30T00:57:54.491Z,32.10
2023-01-30T01:00:43.645Z,33.35
2023-01-30T01:03:27.202Z,32.25
2023-01-30T01:05:54.493Z,32.85
2023-01-30T01:08:22.812Z,33.35
2023-01-30T01:10:50.001Z,37.25
2023-01-30T01:13:51.228Z,37.55
2023-01-30T01:16:36.239Z,34.20
2023-01-30T01:19:06.935Z,36.47
2023-01-30T01:21:42.958Z,32.85
2023-01-30T01:24:40.073Z,32.10
2023-01-30T01:27:28.374Z,30.35
2023-01-30T01:30:01.217Z,31.75
2023-01-30T01:32:30.403Z,31.73
2023-01-30T01:35:03.089Z,33.92
2023-01-30T01:37:35.356Z,32.92
2023-01-30T01:40:21.861Z,32.22
2023-01-30T01:43:08.700Z,31.27
2023-01-30T01:45:53.735Z,33.33
2023-01-30T01:48:32.370Z,30.42
2023-01-30T01:51:04.235Z,35.80
2023-01-30T01:54:01.713Z,36.05
2023-01-30T01:57:04.839Z,37.45
2023-01-30T01:59:58.570Z,31.25
2023-01-30T02:02:35.631Z,31.55
2023-01-30T02:05:11.213Z,33.05
2023-01-30T02:07:52.657Z,34.53
2023-01-30T02:10:27.577Z,32.92
2023-01-30T02:13:26.997Z,34.75
2023-01-30T02:16:09.527Z,33.03
2023-01-30T02:18:48.014Z,29.65
2023-01-30T02:22:07.230Z,30.88
2023-01-30T02:24:54.357Z,31.42
2023-01-30T02:44:15.717Z,33.28
2023-01-30T02:47:16.663Z,32.97
2023-01-30T02:49:52.782Z,32.30
2023-01-30T02:52:36.728Z,33.88
2023-01-30T02:55:20.836Z,30.50
2023-01-30T02:57:51.893Z,37.90
2023-01-30T03:00:59.709Z,34.55
2023-01-30T03:04:06.760Z,30.88
2023-01-30T03:07:09.048Z,31.80
2023-01-30T03:09:45.635Z,32.40
2023-01-30T03:12:48.752Z,38.45
2023-01-30T03:16:02.471Z,37.95
2023-01-30T03:18:30.093Z,33.33
2023-01-30T03:20:57.260Z,33.30
2023-01-30T03:23:28.634Z,35.90
2023-01-30T03:25:57.455Z,37.20
2023-01-30T03:28:28.252Z,35.53
2023-01-30T03:31:00.620Z,38.15
2023-01-30T03:33:29.561Z,39.40
2023-01-30T03:35:57.734Z,40.30
2023-01-30T03:38:25.040Z,38.92
2023-01-30T03:40:52.253Z,40.72
2023-01-30T03:43:39.768Z,37.20
2023-01-30T03:46:43.714Z,38.53
2023-01-30T03:49:24.387Z,42.55
2023-01-30T03:51:52.043Z,34.70
2023-01-30T03:54:19.704Z,36.78
2023-01-30T03:56:47.843Z,36.40
2023-01-30T03:59:15.054Z,39.40
2023-01-30T04:02:10.852Z,35.95
2023-01-30T04:05:11.781Z,36.17
2023-01-30T04:07:58.719Z,36.75
2023-01-30T04:10:27.102Z,37.00
2023-01-30T04:13:15.005Z,40.20
2023-01-30T04:16:24.589Z,38.13
2023-01-30T04:19:24.204Z,40.42
2023-01-30T04:21:51.293Z,45.25
2023-01-30T04:24:18.932Z,41.10
2023-01-30T04:26:46.342Z,42.78
2023-01-30T04:29:14.148Z,43.58
2023-01-30T04:31:42.855Z,43.90
2023-01-30T04:34:19.537Z,40.92
2023-01-30T04:36:47.115Z,42.20
2023-01-30T04:39:14.268Z,40.45
2023-01-30T04:41:41.600Z,39.85
2023-01-30T04:44:30.758Z,40.92
2023-01-30T04:47:44.837Z,42.17
2023-01-30T04:50:25.409Z,39.03
2023-01-30T04:52:52.420Z,42.08
2023-01-30T04:55:39.876Z,41.00
2023-01-30T04:58:40.749Z,40.22
2023-01-30T05:01:37.224Z,39.88
2023-01-30T05:04:06.196Z,37.70
2023-01-30T05:06:36.817Z,41.75
2023-01-30T05:09:04.749Z,43.97
2023-01-30T05:11:52.893Z,41.58
2023-01-30T05:14:53.815Z,39.97
2023-01-30T05:17:55.394Z,41.85
2023-01-30T05:20:24.742Z,41.53
2023-01-30T05:22:51.982Z,42.20
2023-01-30T05:25:20.217Z,41.10
2023-01-30T05:28:07.774Z,43.00
2023-01-30T05:30:48.544Z,39.97
2023-01-30T05:33:15.668Z,41.88
2023-01-30T05:35:50.284Z,46.22
2023-01-30T05:38:17.645Z,43.97
2023-01-30T05:40:44.877Z,42.28
2023-01-30T05:43:31.892Z,43.25
2023-01-30T05:46:13.740Z,43.05
2023-01-30T05:48:41.290Z,41.20
2023-01-30T05:51:17.028Z,46.10
2023-01-30T05:53:44.280Z,45.53
2023-01-30T05:56:11.499Z,46.50
2023-01-30T05:58:51.795Z,46.08
2023-01-30T06:01:53.101Z,48.38
2023-01-30T06:04:58.957Z,43.47
2023-01-30T06:07:39.906Z,42.03
2023-01-30T06:10:18.198Z,45.75
2023-01-30T06:13:15.603Z,43.55
2023-01-30T06:16:00.120Z,42.47
2023-01-30T06:18:32.076Z,40.00
2023-01-30T06:21:01.707Z,44.25
2023-01-30T06:23:41.487Z,41.90
2023-01-30T06:26:13.743Z,46.00
2023-01-30T06:28:40.979Z,45.85
2023-01-30T06:31:08.680Z,43.17
2023-01-30T06:33:37.288Z,43.40
2023-01-30T06:36:04.767Z,40.40
2023-01-30T06:38:35.078Z,40.20
2023-01-30T06:41:07.890Z,45.53
2023-01-30T06:43:54.906Z,41.17
2023-01-30T06:46:52.360Z,44.00
2023-01-30T06:49:55.352Z,36.75
2023-01-30T06:53:02.333Z,43.17
2023-01-30T06:56:02.927Z,39.45
2023-01-30T06:58:47.527Z,43.17
2023-01-30T07:01:16.881Z,42.45
2023-01-30T07:04:04.056Z,40.92
2023-01-30T07:06:47.697Z,38.10
2023-01-30T07:09:26.229Z,40.28
2023-01-30T07:12:20.054Z,44.05
2023-01-30T07:15:55.823Z,40.20
2023-01-30T07:18:42.667Z,38.63
2023-01-30T07:21:12.687Z,38.63
2023-01-30T07:23:40.457Z,40.72
2023-01-30T07:26:07.957Z,43.10
2023-01-30T07:28:35.104Z,34.88
2023-01-30T07:31:03.037Z,35.05
2023-01-30T07:33:31.168Z,36.10
2023-01-30T07:36:18.965Z,36.10
2023-01-30T07:39:01.814Z,33.97
2023-01-30T07:41:29.032Z,34.03
2023-01-30T07:44:15.931Z,29.48
2023-01-30T07:46:56.672Z,31.27
2023-01-30T07:49:23.948Z,31.38
2023-01-30T07:51:51.286Z,31.67
2023-01-30T07:54:18.589Z,33.72
2023-01-30T07:56:46.125Z,31.42
2023-01-30T07:59:13.453Z,32.78
2023-01-30T08:01:40.578Z,32.22
2023-01-30T08:04:28.030Z,32.80
2023-01-30T08:07:29.180Z,30.80
2023-01-30T08:10:30.192Z,34.50
2023-01-30T08:13:30.981Z,32.95
2023-01-30T08:16:11.600Z,32.33
2023-01-30T08:18:38.947Z,34.13
2023-01-30T08:21:07.459Z,31.83
2023-01-30T08:23:35.007Z,32.30
2023-01-30T08:26:04.972Z,29.38
2023-01-30T08:28:33.743Z,33.38
2023-01-30T08:31:01.323Z,29.95
2023-01-30T08:33:29.344Z,31.73
2023-01-30T08:35:57.357Z,33.40
2023-01-30T08:38:44.832Z,32.55
2023-01-30T08:41:27.775Z,33.60
2023-01-30T08:44:14.853Z,40.70
2023-01-30T08:46:55.588Z,38.88
2023-01-30T08:49:22.983Z,37.40
2023-01-30T08:52:09.922Z,35.33
2023-01-30T08:54:50.497Z,36.75
2023-01-30T08:57:17.388Z,41.47
2023-01-30T08:59:44.687Z,39.05
2023-01-30T09:02:12.717Z,38.47
2023-01-30T09:04:40.359Z,35.25
2023-01-30T09:07:27.956Z,40.15
2023-01-30T09:10:29.970Z,31.00
2023-01-30T09:13:30.935Z,35.45
2023-01-30T09:16:28.184Z,36.58
2023-01-30T09:18:55.724Z,36.63
2023-01-30T09:21:22.895Z,33.25
2023-01-30T09:23:51.358Z,35.88
2023-01-30T09:26:22.110Z,37.10
2023-01-30T09:28:50.332Z,36.00
2023-01-30T09:31:44.158Z,31.17
2023-01-30T09:34:35.860Z,35.40
2023-01-30T09:37:15.431Z,34.33
2023-01-30T09:39:44.858Z,33.47
2023-01-30T09:43:30.231Z,31.52
2023-01-30T09:47:04.067Z,30.13
2023-01-30T09:53:34.826Z,29.48
2023-01-30T09:56:02.665Z,34.20
2023-01-30T09:58:56.814Z,28.90
2023-01-30T10:01:43.099Z,35.05
2023-01-30T10:05:00.926Z,33.58
2023-01-30T10:08:31.350Z,32.45
2023-01-30T10:12:09.985Z,37.03
2023-01-30T10:15:30.780Z,39.42
2023-01-30T10:18:16.896Z,33.92
2023-01-30T10:21:04.435Z,36.33
2023-01-30T10:24:17.971Z,35.90
2023-01-30T10:26:59.653Z,36.92
2023-01-30T10:29:36.834Z,34.22
2023-01-30T10:32:22.052Z,35.53
2023-01-30T10:34:55.927Z,33.40
2023-01-30T10:37:42.355Z,34.47
2023-01-30T10:40:35.975Z,31.92
2023-01-30T10:43:31.051Z,39.00
2023-01-30T10:46:29.537Z,37.33
2023-01-30T10:49:07.374Z,35.85
2023-01-30T10:51:47.031Z,38.47
2023-01-30T10:54:23.852Z,39.60
2023-01-30T10:57:25.437Z,40.22
2023-01-30T11:00:20.298Z,40.42
2023-01-30T11:03:18.567Z,41.15
2023-01-30T11:06:12.994Z,42.92
2023-01-30T11:09:04.915Z,40.47
2023-01-30T11:12:07.188Z,38.25
2023-01-30T11:15:11.959Z,37.20
2023-01-30T11:18:40.456Z,42.72
2023-01-30T11:21:24.989Z,36.80
2023-01-30T11:24:05.924Z,39.08
2023-01-30T11:29:29.048Z,36.67
2023-01-30T11:32:40.348Z,35.80
2023-01-30T11:35:42.964Z,33.55
2023-01-30T11:38:25.656Z,37.25
2023-01-30T11:41:04.795Z,35.10
2023-01-30T11:44:24.143Z,35.75
2023-01-30T11:47:09.474Z,34.97
2023-01-30T11:49:47.087Z,34.13
2023-01-30T11:52:33.745Z,36.42
2023-01-30T11:55:09.024Z,35.58
2023-01-30T11:57:48.532Z,32.10
2023-01-30T12:00:21.035Z,35.15
2023-01-30T12:02:51.151Z,33.78
2023-01-30T12:05:32.184Z,37.92
2023-01-30T12:08:31.216Z,37.20
2023-01-30T12:11:03.812Z,35.75
2023-01-30T12:13:56.089Z,32.88
2023-01-30T12:52:50.700Z,29.85
2023-01-30T12:55:42.613Z,32.67
2023-01-30T12:58:38.684Z,33.40
2023-01-30T13:01:35.651Z,34.13
2023-01-30T13:05:04.580Z,32.83
2023-01-30T13:08:21.591Z,36.00
2023-01-30T13:11:38.997Z,31.98
2023-01-30T13:14:41.845Z,36.45
2023-01-30T13:17:37.065Z,35.55
2023-01-30T13:20:14.061Z,33.63
2023-01-30T13:23:30.441Z,37.13
2023-01-30T13:26:19.443Z,37.47
2023-01-30T13:28:53.383Z,36.28
2023-01-30T13:31:49.140Z,32.47
2023-01-30T13:34:58.099Z,37.53
2023-01-30T13:37:39.838Z,32.88
2023-01-30T13:40:47.017Z,35.53
2023-01-30T13:44:05.036Z,33.90
2023-01-30T13:47:14.050Z,33.60
2023-01-30T13:50:23.272Z,33.67
2023-01-30T13:53:01.758Z,35.15
2023-01-30T13:55:46.958Z,32.58
2023-01-30T13:58:35.487Z,33.00
2023-01-30T14:01:02.957Z,32.90
2023-01-30T14:03:32.606Z,31.50
2023-01-30T14:06:19.993Z,35.30
2023-01-30T14:09:27.724Z,33.45
2023-01-30T14:12:22.449Z,34.38
2023-01-30T14:15:23.295Z,34.17
2023-01-30T14:18:09.150Z,34.97
2023-01-30T14:20:50.642Z,34.42
2023-01-30T14:23:30.764Z,36.25
2023-01-30T14:26:07.289Z,35.42
2023-01-30T14:28:45.434Z,34.90
2023-01-30T14:32:01.339Z,37.65
2023-01-30T14:34:52.617Z,33.15
2023-01-30T14:37:45.495Z,36.63
2023-01-30T14:40:42.319Z,34.90
2023-01-30T14:44:04.954Z,37.05
2023-01-30T14:47:34.339Z,33.70
2023-01-30T14:50:33.094Z,33.67
2023-01-30T14:53:08.555Z,32.90
2023-01-30T14:55:43.362Z,35.92
2023-01-30T15:02:13.972Z,34.83
2023-01-30T15:04:51.992Z,34.50
2023-01-30T15:07:39.856Z,35.83
2023-01-30T15:10:21.270Z,37.97
2023-01-30T15:13:45.079Z,38.00
2023-01-30T15:16:28.899Z,32.88
2023-01-30T15:19:38.893Z,37.50
2023-01-30T15:22:39.431Z,34.75
2023-01-30T15:25:33.327Z,37.03
2023-01-30T15:32:22.603Z,34.20
2023-01-30T15:35:34.182Z,38.28
2023-01-30T15:38:33.163Z,34.72
2023-01-30T15:41:12.485Z,36.55
2023-01-30T15:44:18.581Z,36.38
2023-01-30T15:47:22.611Z,35.38
2023-01-30T15:50:14.072Z,38.38
2023-01-30T15:52:48.477Z,36.40
2023-01-30T15:56:12.365Z,40.92
2023-01-30T15:59:14.858Z,38.35
2023-01-30T16:01:44.750Z,34.88
2023-01-30T16:04:27.689Z,39.00
2023-01-30T16:07:38.216Z,40.90
2023-01-30T16:10:31.305Z,39.30
2023-01-30T16:13:24.161Z,40.95
2023-01-30T16:16:19.866Z,40.03
2023-01-30T16:19:23.224Z,40.78
2023-01-30T16:22:25.923Z,41.38
2023-01-30T16:24:55.939Z,40.33
2023-01-30T16:27:35.384Z,39.05
2023-01-30T16:30:11.245Z,41.85
2023-01-30T16:32:39.991Z,36.75
2023-01-30T16:35:31.352Z,42.30
2023-01-30T16:38:35.997Z,38.30
2023-01-30T16:41:35.324Z,38.95
2023-01-30T16:44:37.881Z,40.50
2023-01-30T16:47:47.286Z,40.70
2023-01-30T16:50:37.704Z,37.20
2023-01-30T16:53:16.632Z,43.45
2023-01-30T16:55:54.086Z,42.33
2023-01-30T16:58:47.760Z,40.78
2023-01-30T17:01:51.977Z,40.25
2023-01-30T17:04:23.792Z,43.53
2023-01-30T17:06:59.707Z,42.00
2023-01-30T17:50:32.865Z,41.85
2023-01-30T17:53:07.517Z,46.08
2023-01-30T17:56:00.239Z,42.97
2023-01-30T17:59:12.992Z,45.08
2023-01-30T18:02:18.268Z,47.55
2023-01-30T18:04:47.539Z,50.47
2023-01-30T18:07:18.199Z,44.53
2023-01-30T18:09:45.563Z,49.05
2023-01-30T18:12:33.348Z,46.15
2023-01-30T18:15:19.131Z,47.65
2023-01-30T18:17:48.661Z,52.85
2023-01-30T18:20:21.445Z,51.67
2023-01-30T18:24:00.569Z,51.10
2023-01-30T18:27:29.794Z,44.75
2023-01-30T18:30:31.179Z,49.10
2023-01-30T18:33:32.167Z,50.28
2023-01-30T18:40:13.938Z,48.55
2023-01-30T18:42:44.473Z,46.75
2023-01-30T18:45:31.966Z,43.20
2023-01-30T18:47:59.550Z,47.35
2023-01-30T18:51:09.684Z,46.80
2023-01-30T18:53:42.339Z,42.30
2023-01-30T19:00:23.331Z,46.53
2023-01-30T19:07:17.251Z,42.03
2023-01-30T19:28:44.268Z,43.35
2023-01-30T19:31:45.302Z,49.20
2023-01-30T19:39:42.067Z,45.60
2023-01-30T19:47:14.530Z,45.70
2023-01-30T19:49:54.326Z,49.65
2023-01-30T19:52:31.753Z,48.63
2023-01-30T19:55:53.314Z,49.70
2023-01-30T19:59:14.189Z,49.17
2023-01-30T20:06:37.753Z,45.85
2023-01-30T20:09:12.662Z,44.85
2023-01-30T20:12:38.555Z,45.80
2023-01-30T20:16:27.866Z,48.88
2023-01-30T20:19:29.773Z,47.00
2023-01-30T20:22:37.392Z,49.95
2023-01-30T21:05:46.614Z,45.60
2023-01-30T21:12:57.458Z,53.45
2023-01-30T21:29:41.883Z,44.85
2023-01-30T21:41:45.959Z,41.58
2023-01-30T21:45:47.035Z,43.60
2023-01-30T21:57:35.390Z,43.83
2023-01-30T22:22:56.221Z,41.88
2023-01-30T22:25:42.252Z,48.72
2023-01-30T22:29:55.163Z,44.65
2023-01-30T22:36:53.648Z,44.42
2023-01-30T22:38:36.279Z,42.88
2023-01-30T22:41:30.531Z,42.77
2023-01-30T22:48:45.677Z,43.50
2023-01-30T22:55:25.328Z,47.95
2023-01-30T22:57:58.500Z,49.42
2023-01-30T23:04:28.885Z,49.17
2023-01-30T23:07:43.142Z,51.88
2023-01-30T23:10:58.884Z,49.80
2023-01-30T23:54:53.215Z,45.85
